Terminal Aerodrome Forecast
Issued by NWS Sterling, VA

Current Version | Previous Version | Graphics & Text | Print | Product List | Glossary On
Versions: 1 2 3 4 5 6 7 8 9 10 11 12 13 14 15 16 17 18 19 20 21 22 23 24 25 26
000
FTUS41 KLWX 171737
TAFIAD
TAF
KIAD 171737Z 1718/1824 18007KT 5SM BR OVC010
     FM172100 19008KT P6SM OVC010
     FM180200 21008KT P6SM BKN050
     FM180600 24006KT 3SM BR BKN040
     FM181400 30012G20KT P6SM BKN035
     FM182300 32010KT P6SM SCT030=

USA.gov is the U.S. government's official web portal to all federal, state and local government web resources and services.